sensor_id;sensor_type;location;lat;lon;timestamp;P1;durP1;ratioP1;P2;durP2;ratioP2
7444;SDS011;3764;48.126;11.594;2023-02-01T00:00:49;4.07;;;3.03;;
7444;SDS011;3764;48.126;11.594;2023-02-01T00:03:16;4.07;;;2.80;;
7444;SDS011;3764;48.126;11.594;2023-02-01T00:05:44;4.63;;;3.00;;
7444;SDS011;3764;48.126;11.594;2023-02-01T00:08:11;5.75;;;3.00;;
7444;SDS011;3764;48.126;11.594;2023-02-01T00:10:39;5.35;;;3.20;;
7444;SDS011;3764;48.126;11.594;2023-02-01T00:13:06;3.38;;;2.88;;
7444;SDS011;3764;48.126;11.594;2023-02-01T00:15:34;5.25;;;3.05;;
7444;SDS011;3764;48.126;11.594;2023-02-01T00:18:01;4.82;;;3.00;;
7444;SDS011;3764;48.126;11.594;2023-02-01T00:20:28;4.25;;;2.70;;
7444;SDS011;3764;48.126;11.594;2023-02-01T00:22:55;6.47;;;2.83;;
7444;SDS011;3764;48.126;11.594;2023-02-01T00:25:22;3.92;;;2.95;;
7444;SDS011;3764;48.126;11.594;2023-02-01T00:27:51;3.17;;;2.42;;
7444;SDS011;3764;48.126;11.594;2023-02-01T00:30:18;4.60;;;2.75;;
7444;SDS011;3764;48.126;11.594;2023-02-01T00:32:46;3.83;;;2.80;;
7444;SDS011;3764;48.126;11.594;2023-02-01T00:35:13;4.85;;;3.00;;
7444;SDS011;3764;48.126;11.594;2023-02-01T00:37:40;3.10;;;2.55;;
7444;SDS011;3764;48.126;11.594;2023-02-01T00:40:08;3.92;;;3.47;;
7444;SDS011;3764;48.126;11.594;2023-02-01T00:42:35;3.22;;;2.17;;
7444;SDS011;3764;48.126;11.594;2023-02-01T00:45:05;8.45;;;3.95;;
7444;SDS011;3764;48.126;11.594;2023-02-01T00:47:33;3.13;;;2.60;;
7444;SDS011;3764;48.126;11.594;2023-02-01T00:50:00;5.05;;;2.65;;
7444;SDS011;3764;48.126;11.594;2023-02-01T00:52:27;3.95;;;2.63;;
7444;SDS011;3764;48.126;11.594;2023-02-01T00:54:54;3.85;;;3.10;;
7444;SDS011;3764;48.126;11.594;2023-02-01T00:57:21;7.25;;;3.72;;
7444;SDS011;3764;48.126;11.594;2023-02-01T00:59:48;6.13;;;4.35;;
7444;SDS011;3764;48.126;11.594;2023-02-01T01:02:17;6.65;;;3.33;;
7444;SDS011;3764;48.126;11.594;2023-02-01T01:04:44;5.38;;;3.15;;
7444;SDS011;3764;48.126;11.594;2023-02-01T01:07:11;4.95;;;3.92;;
7444;SDS011;3764;48.126;11.594;2023-02-01T01:09:38;6.60;;;3.50;;
7444;SDS011;3764;48.126;11.594;2023-02-01T01:12:05;4.75;;;3.42;;
7444;SDS011;3764;48.126;11.594;2023-02-01T01:14:32;6.07;;;3.85;;
7444;SDS011;3764;48.126;11.594;2023-02-01T01:16:59;5.15;;;3.30;;
7444;SDS011;3764;48.126;11.594;2023-02-01T01:19:28;5.00;;;3.72;;
7444;SDS011;3764;48.126;11.594;2023-02-01T01:21:55;6.50;;;3.90;;
7444;SDS011;3764;48.126;11.594;2023-02-01T01:24:22;5.75;;;3.92;;
7444;SDS011;3764;48.126;11.594;2023-02-01T01:26:49;4.07;;;3.72;;
7444;SDS011;3764;48.126;11.594;2023-02-01T01:29:16;5.28;;;3.78;;
7444;SDS011;3764;48.126;11.594;2023-02-01T01:31:43;9.32;;;4.20;;
7444;SDS011;3764;48.126;11.594;2023-02-01T01:34:10;6.90;;;4.03;;
7444;SDS011;3764;48.126;11.594;2023-02-01T01:36:39;5.55;;;3.78;;
7444;SDS011;3764;48.126;11.594;2023-02-01T01:39:06;6.25;;;4.35;;
7444;SDS011;3764;48.126;11.594;2023-02-01T01:41:33;6.55;;;4.15;;
7444;SDS011;3764;48.126;11.594;2023-02-01T01:44:01;6.30;;;4.60;;
7444;SDS011;3764;48.126;11.594;2023-02-01T01:46:30;7.25;;;3.72;;
7444;SDS011;3764;48.126;11.594;2023-02-01T01:49:00;9.35;;;4.43;;
7444;SDS011;3764;48.126;11.594;2023-02-01T01:51:31;5.30;;;3.92;;
7444;SDS011;3764;48.126;11.594;2023-02-01T01:54:04;5.75;;;4.20;;
7444;SDS011;3764;48.126;11.594;2023-02-01T01:56:37;5.65;;;4.30;;
7444;SDS011;3764;48.126;11.594;2023-02-01T01:59:05;6.90;;;4.18;;
7444;SDS011;3764;48.126;11.594;2023-02-01T02:01:32;6.75;;;4.80;;
7444;SDS011;3764;48.126;11.594;2023-02-01T02:03:59;6.82;;;5.00;;
7444;SDS011;3764;48.126;11.594;2023-02-01T02:06:30;5.90;;;4.30;;
7444;SDS011;3764;48.126;11.594;2023-02-01T02:09:04;7.18;;;5.35;;
7444;SDS011;3764;48.126;11.594;2023-02-01T02:11:31;5.97;;;5.20;;
7444;SDS011;3764;48.126;11.594;2023-02-01T02:13:59;6.25;;;4.80;;
7444;SDS011;3764;48.126;11.594;2023-02-01T02:16:31;7.78;;;4.40;;
7444;SDS011;3764;48.126;11.594;2023-02-01T02:19:28;8.70;;;5.45;;
7444;SDS011;3764;48.126;11.594;2023-02-01T02:22:17;9.98;;;5.55;;
7444;SDS011;3764;48.126;11.594;2023-02-01T02:28:22;8.18;;;5.93;;
7444;SDS011;3764;48.126;11.594;2023-02-01T02:31:25;7.47;;;5.43;;
7444;SDS011;3764;48.126;11.594;2023-02-01T02:34:09;8.70;;;5.63;;
7444;SDS011;3764;48.126;11.594;2023-02-01T02:36:45;6.80;;;4.65;;
7444;SDS011;3764;48.126;11.594;2023-02-01T02:39:21;5.93;;;5.07;;
7444;SDS011;3764;48.126;11.594;2023-02-01T02:41:57;6.88;;;4.75;;
7444;SDS011;3764;48.126;11.594;2023-02-01T02:44:46;6.82;;;5.38;;
7444;SDS011;3764;48.126;11.594;2023-02-01T02:47:33;7.40;;;4.82;;
7444;SDS011;3764;48.126;11.594;2023-02-01T02:50:12;6.20;;;4.45;;
7444;SDS011;3764;48.126;11.594;2023-02-01T02:53:04;5.40;;;3.97;;
7444;SDS011;3764;48.126;11.594;2023-02-01T02:55:58;6.10;;;4.95;;
7444;SDS011;3764;48.126;11.594;2023-02-01T02:58:45;7.38;;;4.93;;
7444;SDS011;3764;48.126;11.594;2023-02-01T03:01:30;5.88;;;4.90;;
7444;SDS011;3764;48.126;11.594;2023-02-01T03:04:16;6.88;;;4.68;;
7444;SDS011;3764;48.126;11.594;2023-02-01T03:06:46;7.53;;;6.15;;
7444;SDS011;3764;48.126;11.594;2023-02-01T03:09:14;5.28;;;3.78;;
7444;SDS011;3764;48.126;11.594;2023-02-01T03:11:47;6.32;;;4.65;;
7444;SDS011;3764;48.126;11.594;2023-02-01T03:14:35;5.50;;;4.07;;
7444;SDS011;3764;48.126;11.594;2023-02-01T03:17:05;10.15;;;5.60;;
7444;SDS011;3764;48.126;11.594;2023-02-01T03:19:39;6.03;;;3.85;;
7444;SDS011;3764;48.126;11.594;2023-02-01T03:22:15;7.70;;;4.82;;
7444;SDS011;3764;48.126;11.594;2023-02-01T03:24:45;6.13;;;4.38;;
7444;SDS011;3764;48.126;11.594;2023-02-01T03:27:17;6.15;;;5.18;;
7444;SDS011;3764;48.126;11.594;2023-02-01T03:29:49;6.43;;;4.57;;
7444;SDS011;3764;48.126;11.594;2023-02-01T03:32:21;5.90;;;4.50;;
7444;SDS011;3764;48.126;11.594;2023-02-01T03:34:48;5.05;;;4.18;;
7444;SDS011;3764;48.126;11.594;2023-02-01T03:37:21;5.53;;;3.50;;
7444;SDS011;3764;48.126;11.594;2023-02-01T03:39:53;5.38;;;4.03;;
7444;SDS011;3764;48.126;11.594;2023-02-01T03:42:27;4.45;;;3.65;;
7444;SDS011;3764;48.126;11.594;2023-02-01T03:45:00;5.72;;;4.57;;
7444;SDS011;3764;48.126;11.594;2023-02-01T03:47:34;4.68;;;3.63;;
7444;SDS011;3764;48.126;11.594;2023-02-01T03:50:05;5.18;;;3.80;;
7444;SDS011;3764;48.126;11.594;2023-02-01T03:52:38;5.95;;;3.50;;
7444;SDS011;3764;48.126;11.594;2023-02-01T03:55:09;6.65;;;4.35;;
7444;SDS011;3764;48.126;11.594;2023-02-01T03:57:38;5.60;;;4.15;;
7444;SDS011;3764;48.126;11.594;2023-02-01T04:00:14;6.30;;;4.25;;
7444;SDS011;3764;48.126;11.594;2023-02-01T04:02:43;5.70;;;3.53;;
7444;SDS011;3764;48.126;11.594;2023-02-01T04:05:10;4.88;;;4.05;;
7444;SDS011;3764;48.126;11.594;2023-02-01T04:07:39;4.97;;;3.88;;
7444;SDS011;3764;48.126;11.594;2023-02-01T04:10:06;7.05;;;4.28;;
7444;SDS011;3764;48.126;11.594;2023-02-01T04:12:35;7.20;;;4.05;;
7444;SDS011;3764;48.126;11.594;2023-02-01T04:15:02;8.07;;;5.00;;
7444;SDS011;3764;48.126;11.594;2023-02-01T04:17:29;5.50;;;4.00;;
7444;SDS011;3764;48.126;11.594;2023-02-01T04:19:57;5.63;;;3.55;;
7444;SDS011;3764;48.126;11.594;2023-02-01T04:22:24;5.63;;;3.72;;
7444;SDS011;3764;48.126;11.594;2023-02-01T04:24:52;4.60;;;4.10;;
7444;SDS011;3764;48.126;11.594;2023-02-01T04:27:19;4.82;;;3.55;;
7444;SDS011;3764;48.126;11.594;2023-02-01T04:29:46;6.43;;;3.92;;
7444;SDS011;3764;48.126;11.594;2023-02-01T04:32:14;6.20;;;3.88;;
7444;SDS011;3764;48.126;11.594;2023-02-01T04:34:41;4.72;;;4.20;;
7444;SDS011;3764;48.126;11.594;2023-02-01T04:37:09;6.75;;;4.20;;
7444;SDS011;3764;48.126;11.594;2023-02-01T04:39:36;5.13;;;3.80;;
7444;SDS011;3764;48.126;11.594;2023-02-01T04:42:04;6.10;;;3.90;;
7444;SDS011;3764;48.126;11.594;2023-02-01T04:44:32;4.82;;;4.07;;
7444;SDS011;3764;48.126;11.594;2023-02-01T04:46:59;5.53;;;4.40;;
7444;SDS011;3764;48.126;11.594;2023-02-01T04:49:26;5.65;;;4.20;;
7444;SDS011;3764;48.126;11.594;2023-02-01T04:51:53;8.27;;;4.13;;
7444;SDS011;3764;48.126;11.594;2023-02-01T04:54:20;7.35;;;4.03;;
7444;SDS011;3764;48.126;11.594;2023-02-01T04:56:47;5.95;;;3.75;;
7444;SDS011;3764;48.126;11.594;2023-02-01T04:59:15;6.95;;;4.15;;
7444;SDS011;3764;48.126;11.594;2023-02-01T05:01:42;6.93;;;4.07;;
7444;SDS011;3764;48.126;11.594;2023-02-01T05:04:09;6.82;;;4.90;;
7444;SDS011;3764;48.126;11.594;2023-02-01T05:06:37;7.75;;;4.85;;
7444;SDS011;3764;48.126;11.594;2023-02-01T05:09:05;4.07;;;3.67;;
7444;SDS011;3764;48.126;11.594;2023-02-01T05:11:32;6.07;;;4.85;;
7444;SDS011;3764;48.126;11.594;2023-02-01T05:14:23;6.55;;;4.47;;
7444;SDS011;3764;48.126;11.594;2023-02-01T05:16:50;6.10;;;4.10;;
7444;SDS011;3764;48.126;11.594;2023-02-01T05:19:17;7.05;;;5.00;;
7444;SDS011;3764;48.126;11.594;2023-02-01T05:21:44;5.60;;;4.22;;
7444;SDS011;3764;48.126;11.594;2023-02-01T05:24:11;6.15;;;4.88;;
7444;SDS011;3764;48.126;11.594;2023-02-01T05:26:45;8.27;;;4.78;;
7444;SDS011;3764;48.126;11.594;2023-02-01T05:29:12;6.20;;;4.80;;
7444;SDS011;3764;48.126;11.594;2023-02-01T05:31:41;7.63;;;5.20;;
7444;SDS011;3764;48.126;11.594;2023-02-01T05:34:10;4.95;;;4.25;;
7444;SDS011;3764;48.126;11.594;2023-02-01T05:36:37;6.22;;;4.63;;
7444;SDS011;3764;48.126;11.594;2023-02-01T05:39:04;8.43;;;5.20;;
7444;SDS011;3764;48.126;11.594;2023-02-01T05:41:31;6.40;;;4.57;;
7444;SDS011;3764;48.126;11.594;2023-02-01T05:43:58;7.18;;;4.63;;
7444;SDS011;3764;48.126;11.594;2023-02-01T05:46:25;6.82;;;4.97;;
7444;SDS011;3764;48.126;11.594;2023-02-01T05:48:54;7.90;;;4.30;;
7444;SDS011;3764;48.126;11.594;2023-02-01T05:51:21;10.82;;;5.28;;
7444;SDS011;3764;48.126;11.594;2023-02-01T05:53:48;6.47;;;4.80;;
7444;SDS011;3764;48.126;11.594;2023-02-01T05:56:15;7.25;;;5.07;;
7444;SDS011;3764;48.126;11.594;2023-02-01T05:58:42;5.82;;;4.45;;
7444;SDS011;3764;48.126;11.594;2023-02-01T06:01:09;5.80;;;5.18;;
7444;SDS011;3764;48.126;11.594;2023-02-01T06:03:36;6.38;;;4.70;;
7444;SDS011;3764;48.126;11.594;2023-02-01T06:06:05;6.63;;;4.65;;
7444;SDS011;3764;48.126;11.594;2023-02-01T06:08:32;5.95;;;4.88;;
7444;SDS011;3764;48.126;11.594;2023-02-01T06:10:59;5.07;;;4.57;;
7444;SDS011;3764;48.126;11.594;2023-02-01T06:13:28;5.70;;;4.35;;
7444;SDS011;3764;48.126;11.594;2023-02-01T06:15:56;5.65;;;4.93;;
7444;SDS011;3764;48.126;11.594;2023-02-01T06:18:23;6.30;;;4.68;;
7444;SDS011;3764;48.126;11.594;2023-02-01T06:20:53;7.65;;;5.50;;
7444;SDS011;3764;48.126;11.594;2023-02-01T06:23:23;5.40;;;4.13;;
7444;SDS011;3764;48.126;11.594;2023-02-01T06:25:50;5.88;;;4.53;;
7444;SDS011;3764;48.126;11.594;2023-02-01T06:28:18;7.20;;;4.43;;
7444;SDS011;3764;48.126;11.594;2023-02-01T06:30:45;6.97;;;4.88;;
7444;SDS011;3764;48.126;11.594;2023-02-01T06:33:12;7.15;;;5.00;;
7444;SDS011;3764;48.126;11.594;2023-02-01T06:35:41;4.40;;;3.90;;
7444;SDS011;3764;48.126;11.594;2023-02-01T06:38:09;7.18;;;4.70;;
7444;SDS011;3764;48.126;11.594;2023-02-01T06:40:37;6.72;;;4.78;;
7444;SDS011;3764;48.126;11.594;2023-02-01T06:43:04;10.13;;;4.72;;
7444;SDS011;3764;48.126;11.594;2023-02-01T06:45:32;6.60;;;5.20;;
7444;SDS011;3764;48.126;11.594;2023-02-01T06:47:59;6.75;;;4.75;;
7444;SDS011;3764;48.126;11.594;2023-02-01T06:50:26;7.75;;;5.57;;
7444;SDS011;3764;48.126;11.594;2023-02-01T06:52:53;6.13;;;4.82;;
7444;SDS011;3764;48.126;11.594;2023-02-01T06:55:21;6.50;;;4.05;;
7444;SDS011;3764;48.126;11.594;2023-02-01T06:57:49;6.25;;;4.20;;
7444;SDS011;3764;48.126;11.594;2023-02-01T07:00:20;8.13;;;5.05;;
7444;SDS011;3764;48.126;11.594;2023-02-01T07:02:47;5.28;;;4.43;;
7444;SDS011;3764;48.126;11.594;2023-02-01T07:05:15;5.65;;;4.15;;
7444;SDS011;3764;48.126;11.594;2023-02-01T07:07:42;8.13;;;3.90;;
7444;SDS011;3764;48.126;11.594;2023-02-01T07:10:09;4.78;;;3.78;;
7444;SDS011;3764;48.126;11.594;2023-02-01T07:12:37;7.68;;;4.50;;
7444;SDS011;3764;48.126;11.594;2023-02-01T07:15:06;7.07;;;4.70;;
7444;SDS011;3764;48.126;11.594;2023-02-01T07:17:33;6.18;;;4.95;;
7444;SDS011;3764;48.126;11.594;2023-02-01T07:20:00;7.63;;;4.75;;
7444;SDS011;3764;48.126;11.594;2023-02-01T07:22:27;5.63;;;4.10;;
7444;SDS011;3764;48.126;11.594;2023-02-01T07:24:55;5.55;;;3.42;;
7444;SDS011;3764;48.126;11.594;2023-02-01T07:27:22;5.22;;;3.70;;
7444;SDS011;3764;48.126;11.594;2023-02-01T07:29:50;4.30;;;3.53;;
7444;SDS011;3764;48.126;11.594;2023-02-01T07:32:19;4.70;;;3.70;;
7444;SDS011;3764;48.126;11.594;2023-02-01T07:34:46;5.82;;;4.28;;
7444;SDS011;3764;48.126;11.594;2023-02-01T07:37:13;6.00;;;4.25;;
7444;SDS011;3764;48.126;11.594;2023-02-01T07:39:40;4.85;;;4.10;;
7444;SDS011;3764;48.126;11.594;2023-02-01T07:42:07;3.80;;;2.95;;
7444;SDS011;3764;48.126;11.594;2023-02-01T07:44:34;4.40;;;3.50;;
7444;SDS011;3764;48.126;11.594;2023-02-01T07:47:01;6.32;;;3.40;;
7444;SDS011;3764;48.126;11.594;2023-02-01T07:49:30;6.18;;;3.20;;
7444;SDS011;3764;48.126;11.594;2023-02-01T07:51:57;8.55;;;3.60;;
7444;SDS011;3764;48.126;11.594;2023-02-01T07:54:24;5.45;;;3.80;;
7444;SDS011;3764;48.126;11.594;2023-02-01T07:56:51;4.60;;;3.47;;
7444;SDS011;3764;48.126;11.594;2023-02-01T07:59:18;3.67;;;3.22;;
7444;SDS011;3764;48.126;11.594;2023-02-01T08:01:45;5.05;;;3.55;;
7444;SDS011;3764;48.126;11.594;2023-02-01T08:04:11;5.80;;;4.00;;
7444;SDS011;3764;48.126;11.594;2023-02-01T08:06:40;2.75;;;2.45;;
7444;SDS011;3764;48.126;11.594;2023-02-01T08:09:07;3.67;;;2.70;;
7444;SDS011;3764;48.126;11.594;2023-02-01T08:11:36;3.78;;;2.95;;
7444;SDS011;3764;48.126;11.594;2023-02-01T08:14:03;2.60;;;2.33;;
7444;SDS011;3764;48.126;11.594;2023-02-01T08:16:31;4.35;;;2.72;;
7444;SDS011;3764;48.126;11.594;2023-02-01T08:19:01;5.10;;;3.40;;
7444;SDS011;3764;48.126;11.594;2023-02-01T08:21:28;4.68;;;3.05;;
7444;SDS011;3764;48.126;11.594;2023-02-01T08:24:03;3.78;;;2.22;;
7444;SDS011;3764;48.126;11.594;2023-02-01T08:26:31;3.75;;;2.72;;
7444;SDS011;3764;48.126;11.594;2023-02-01T08:28:59;3.25;;;2.75;;
7444;SDS011;3764;48.126;11.594;2023-02-01T08:31:30;4.25;;;2.95;;
7444;SDS011;3764;48.126;11.594;2023-02-01T08:33:57;3.67;;;2.80;;
7444;SDS011;3764;48.126;11.594;2023-02-01T08:36:26;5.65;;;2.70;;
7444;SDS011;3764;48.126;11.594;2023-02-01T08:38:55;6.25;;;3.10;;
7444;SDS011;3764;48.126;11.594;2023-02-01T08:41:24;3.70;;;2.60;;
7444;SDS011;3764;48.126;11.594;2023-02-01T08:43:53;3.97;;;2.72;;
7444;SDS011;3764;48.126;11.594;2023-02-01T08:46:20;6.03;;;3.08;;
7444;SDS011;3764;48.126;11.594;2023-02-01T08:48:48;3.80;;;3.00;;
7444;SDS011;3764;48.126;11.594;2023-02-01T08:51:17;4.70;;;2.50;;
7444;SDS011;3764;48.126;11.594;2023-02-01T08:53:45;4.10;;;3.30;;
7444;SDS011;3764;48.126;11.594;2023-02-01T08:56:15;4.65;;;3.05;;
7444;SDS011;3764;48.126;11.594;2023-02-01T08:58:44;3.70;;;2.60;;
7444;SDS011;3764;48.126;11.594;2023-02-01T09:01:12;4.80;;;2.58;;
7444;SDS011;3764;48.126;11.594;2023-02-01T09:03:41;2.97;;;2.50;;
7444;SDS011;3764;48.126;11.594;2023-02-01T09:06:10;4.80;;;2.63;;
7444;SDS011;3764;48.126;11.594;2023-02-01T09:08:38;3.15;;;2.50;;
7444;SDS011;3764;48.126;11.594;2023-02-01T09:11:06;4.70;;;2.80;;
7444;SDS011;3764;48.126;11.594;2023-02-01T09:13:36;3.55;;;3.13;;
7444;SDS011;3764;48.126;11.594;2023-02-01T09:16:05;2.20;;;2.00;;
7444;SDS011;3764;48.126;11.594;2023-02-01T09:18:32;4.57;;;2.58;;
7444;SDS011;3764;48.126;11.594;2023-02-01T09:21:03;5.97;;;3.15;;
7444;SDS011;3764;48.126;11.594;2023-02-01T09:23:30;5.38;;;2.70;;
7444;SDS011;3764;48.126;11.594;2023-02-01T09:25:58;4.80;;;3.20;;
7444;SDS011;3764;48.126;11.594;2023-02-01T09:28:25;3.88;;;2.40;;
7444;SDS011;3764;48.126;11.594;2023-02-01T09:30:54;6.22;;;2.95;;
7444;SDS011;3764;48.126;11.594;2023-02-01T09:33:24;5.05;;;3.17;;
7444;SDS011;3764;48.126;11.594;2023-02-01T09:35:54;3.47;;;3.05;;
7444;SDS011;3764;48.126;11.594;2023-02-01T09:38:22;3.13;;;2.83;;
7444;SDS011;3764;48.126;11.594;2023-02-01T09:40:50;2.65;;;2.45;;
7444;SDS011;3764;48.126;11.594;2023-02-01T09:43:21;5.43;;;2.58;;
7444;SDS011;3764;48.126;11.594;2023-02-01T09:45:59;4.93;;;2.95;;
7444;SDS011;3764;48.126;11.594;2023-02-01T09:48:40;2.53;;;2.08;;
7444;SDS011;3764;48.126;11.594;2023-02-01T09:51:12;6.10;;;3.20;;
7444;SDS011;3764;48.126;11.594;2023-02-01T09:53:43;3.70;;;2.70;;
7444;SDS011;3764;48.126;11.594;2023-02-01T09:56:18;3.92;;;2.42;;
7444;SDS011;3764;48.126;11.594;2023-02-01T09:58:49;4.80;;;2.83;;
7444;SDS011;3764;48.126;11.594;2023-02-01T10:01:21;3.95;;;2.60;;
7444;SDS011;3764;48.126;11.594;2023-02-01T10:03:54;4.20;;;2.40;;
7444;SDS011;3764;48.126;11.594;2023-02-01T10:06:33;3.95;;;2.40;;
7444;SDS011;3764;48.126;11.594;2023-02-01T10:09:16;6.45;;;2.55;;
7444;SDS011;3764;48.126;11.594;2023-02-01T10:15:02;3.60;;;2.70;;
7444;SDS011;3764;48.126;11.594;2023-02-01T10:17:44;4.75;;;3.33;;
7444;SDS011;3764;48.126;11.594;2023-02-01T10:20:20;7.90;;;3.45;;
7444;SDS011;3764;48.126;11.594;2023-02-01T10:22:55;2.47;;;2.28;;
7444;SDS011;3764;48.126;11.594;2023-02-01T10:25:29;3.60;;;2.95;;
7444;SDS011;3764;48.126;11.594;2023-02-01T10:28:02;7.25;;;3.17;;
7444;SDS011;3764;48.126;11.594;2023-02-01T10:30:40;6.10;;;3.38;;
7444;SDS011;3764;48.126;11.594;2023-02-01T10:33:14;3.40;;;3.10;;
7444;SDS011;3764;48.126;11.594;2023-02-01T10:35:45;4.30;;;2.60;;
7444;SDS011;3764;48.126;11.594;2023-02-01T10:38:16;4.15;;;2.60;;
7444;SDS011;3764;48.126;11.594;2023-02-01T10:40:48;3.15;;;2.60;;
7444;SDS011;3764;48.126;11.594;2023-02-01T10:43:15;5.70;;;3.10;;
7444;SDS011;3764;48.126;11.594;2023-02-01T10:45:42;2.58;;;2.22;;
7444;SDS011;3764;48.126;11.594;2023-02-01T10:48:09;4.82;;;2.47;;
7444;SDS011;3764;48.126;11.594;2023-02-01T10:50:38;6.50;;;3.28;;
7444;SDS011;3764;48.126;11.594;2023-02-01T10:53:13;5.43;;;2.53;;
7444;SDS011;3764;48.126;11.594;2023-02-01T10:55:48;3.40;;;2.63;;
7444;SDS011;3764;48.126;11.594;2023-02-01T10:58:17;4.60;;;2.92;;
7444;SDS011;3764;48.126;11.594;2023-02-01T11:00:46;4.65;;;2.90;;
7444;SDS011;3764;48.126;11.594;2023-02-01T11:03:19;4.50;;;3.28;;
7444;SDS011;3764;48.126;11.594;2023-02-01T11:05:54;5.88;;;3.40;;
7444;SDS011;3764;48.126;11.594;2023-02-01T11:08:24;7.28;;;4.57;;
7444;SDS011;3764;48.126;11.594;2023-02-01T11:10:56;4.38;;;3.33;;
7444;SDS011;3764;48.126;11.594;2023-02-01T11:13:28;4.40;;;3.05;;
7444;SDS011;3764;48.126;11.594;2023-02-01T11:15:57;3.70;;;3.20;;
7444;SDS011;3764;48.126;11.594;2023-02-01T11:18:25;5.70;;;4.05;;
7444;SDS011;3764;48.126;11.594;2023-02-01T11:20:56;5.15;;;3.15;;
7444;SDS011;3764;48.126;11.594;2023-02-01T11:23:27;4.18;;;3.25;;
7444;SDS011;3764;48.126;11.594;2023-02-01T11:25:58;5.13;;;3.83;;
7444;SDS011;3764;48.126;11.594;2023-02-01T11:28:28;3.78;;;2.90;;
7444;SDS011;3764;48.126;11.594;2023-02-01T11:30:58;5.13;;;2.85;;
7444;SDS011;3764;48.126;11.594;2023-02-01T11:33:29;6.57;;;3.03;;
7444;SDS011;3764;48.126;11.594;2023-02-01T11:36:00;5.07;;;3.58;;
7444;SDS011;3764;48.126;11.594;2023-02-01T11:38:34;13.60;;;6.47;;
7444;SDS011;3764;48.126;11.594;2023-02-01T11:41:11;6.30;;;3.40;;
7444;SDS011;3764;48.126;11.594;2023-02-01T11:43:49;3.90;;;2.60;;
7444;SDS011;3764;48.126;11.594;2023-02-01T11:46:18;4.63;;;2.88;;
7444;SDS011;3764;48.126;11.594;2023-02-01T11:48:50;5.95;;;3.15;;
7444;SDS011;3764;48.126;11.594;2023-02-01T11:51:22;5.15;;;3.65;;
7444;SDS011;3764;48.126;11.594;2023-02-01T11:54:05;4.95;;;3.40;;
7444;SDS011;3764;48.126;11.594;2023-02-01T11:56:44;5.90;;;4.18;;
7444;SDS011;3764;48.126;11.594;2023-02-01T11:59:25;4.00;;;3.40;;
7444;SDS011;3764;48.126;11.594;2023-02-01T12:02:03;4.57;;;2.97;;
7444;SDS011;3764;48.126;11.594;2023-02-01T12:07:53;4.18;;;3.20;;
7444;SDS011;3764;48.126;11.594;2023-02-01T12:10:42;4.55;;;3.60;;
7444;SDS011;3764;48.126;11.594;2023-02-01T12:13:20;7.85;;;3.30;;
7444;SDS011;3764;48.126;11.594;2023-02-01T12:16:00;9.43;;;3.20;;
7444;SDS011;3764;48.126;11.594;2023-02-01T12:18:41;4.10;;;3.28;;
7444;SDS011;3764;48.126;11.594;2023-02-01T12:21:22;5.88;;;3.33;;
7444;SDS011;3764;48.126;11.594;2023-02-01T12:24:02;5.10;;;3.90;;
7444;SDS011;3764;48.126;11.594;2023-02-01T12:27:03;5.20;;;3.05;;
7444;SDS011;3764;48.126;11.594;2023-02-01T12:29:47;7.75;;;3.95;;
7444;SDS011;3764;48.126;11.594;2023-02-01T12:32:30;9.38;;;5.15;;
7444;SDS011;3764;48.126;11.594;2023-02-01T12:35:20;4.55;;;3.80;;
7444;SDS011;3764;48.126;11.594;2023-02-01T12:38:03;5.38;;;4.07;;
7444;SDS011;3764;48.126;11.594;2023-02-01T12:40:45;4.43;;;3.17;;
7444;SDS011;3764;48.126;11.594;2023-02-01T12:43:28;5.70;;;3.78;;
7444;SDS011;3764;48.126;11.594;2023-02-01T12:46:04;7.18;;;3.55;;
7444;SDS011;3764;48.126;11.594;2023-02-01T12:48:36;6.53;;;3.92;;
7444;SDS011;3764;48.126;11.594;2023-02-01T12:51:09;5.85;;;4.68;;
7444;SDS011;3764;48.126;11.594;2023-02-01T12:53:44;4.63;;;3.17;;
7444;SDS011;3764;48.126;11.594;2023-02-01T12:56:19;5.18;;;3.60;;
7444;SDS011;3764;48.126;11.594;2023-02-01T12:58:52;6.82;;;3.33;;
7444;SDS011;3764;48.126;11.594;2023-02-01T13:01:22;4.13;;;3.28;;
7444;SDS011;3764;48.126;11.594;2023-02-01T13:03:56;12.40;;;3.55;;
7444;SDS011;3764;48.126;11.594;2023-02-01T13:06:28;9.57;;;3.67;;
7444;SDS011;3764;48.126;11.594;2023-02-01T13:09:00;4.85;;;3.15;;
7444;SDS011;3764;48.126;11.594;2023-02-01T13:11:31;3.95;;;3.00;;
7444;SDS011;3764;48.126;11.594;2023-02-01T13:14:02;13.35;;;3.53;;
7444;SDS011;3764;48.126;11.594;2023-02-01T13:16:35;5.88;;;2.80;;
7444;SDS011;3764;48.126;11.594;2023-02-01T13:19:09;6.47;;;2.58;;
7444;SDS011;3764;48.126;11.594;2023-02-01T13:21:43;5.55;;;3.05;;
7444;SDS011;3764;48.126;11.594;2023-02-01T13:24:20;3.42;;;3.05;;
7444;SDS011;3764;48.126;11.594;2023-02-01T13:26:54;11.77;;;4.85;;
7444;SDS011;3764;48.126;11.594;2023-02-01T13:29:23;4.97;;;2.80;;
7444;SDS011;3764;48.126;11.594;2023-02-01T13:31:58;4.60;;;2.80;;
7444;SDS011;3764;48.126;11.594;2023-02-01T13:34:49;7.40;;;3.25;;
7444;SDS011;3764;48.126;11.594;2023-02-01T13:37:31;3.40;;;2.95;;
7444;SDS011;3764;48.126;11.594;2023-02-01T13:40:17;4.88;;;2.80;;
7444;SDS011;3764;48.126;11.594;2023-02-01T13:43:05;4.07;;;3.05;;
7444;SDS011;3764;48.126;11.594;2023-02-01T13:45:42;4.78;;;3.22;;
7444;SDS011;3764;48.126;11.594;2023-02-01T13:48:17;4.13;;;3.20;;
7444;SDS011;3764;48.126;11.594;2023-02-01T13:50:49;9.95;;;6.03;;
7444;SDS011;3764;48.126;11.594;2023-02-01T13:53:22;5.57;;;3.05;;
7444;SDS011;3764;48.126;11.594;2023-02-01T13:55:57;4.25;;;3.28;;
7444;SDS011;3764;48.126;11.594;2023-02-01T13:58:31;4.10;;;3.00;;
7444;SDS011;3764;48.126;11.594;2023-02-01T14:04:02;3.90;;;3.50;;
7444;SDS011;3764;48.126;11.594;2023-02-01T14:06:38;4.65;;;3.40;;
7444;SDS011;3764;48.126;11.594;2023-02-01T14:15:16;3.05;;;2.70;;
7444;SDS011;3764;48.126;11.594;2023-02-01T14:17:52;5.55;;;3.55;;
7444;SDS011;3764;48.126;11.594;2023-02-01T14:23:17;4.35;;;3.22;;
7444;SDS011;3764;48.126;11.594;2023-02-01T14:25:47;4.18;;;3.13;;
7444;SDS011;3764;48.126;11.594;2023-02-01T14:28:38;5.82;;;3.17;;
7444;SDS011;3764;48.126;11.594;2023-02-01T14:31:34;4.10;;;2.42;;
7444;SDS011;3764;48.126;11.594;2023-02-01T14:34:15;3.50;;;2.95;;
7444;SDS011;3764;48.126;11.594;2023-02-01T14:36:52;4.40;;;3.00;;
7444;SDS011;3764;48.126;11.594;2023-02-01T14:39:28;5.15;;;2.70;;
7444;SDS011;3764;48.126;11.594;2023-02-01T14:41:59;5.82;;;3.17;;
7444;SDS011;3764;48.126;11.594;2023-02-01T14:44:30;7.72;;;2.88;;
7444;SDS011;3764;48.126;11.594;2023-02-01T14:47:10;8.85;;;3.42;;
7444;SDS011;3764;48.126;11.594;2023-02-01T14:53:16;3.63;;;2.60;;
7444;SDS011;3764;48.126;11.594;2023-02-01T14:55:47;4.90;;;2.75;;
7444;SDS011;3764;48.126;11.594;2023-02-01T14:58:25;4.05;;;2.38;;
7444;SDS011;3764;48.126;11.594;2023-02-01T15:01:00;4.57;;;2.25;;
7444;SDS011;3764;48.126;11.594;2023-02-01T15:03:38;10.80;;;2.90;;
7444;SDS011;3764;48.126;11.594;2023-02-01T15:06:30;9.18;;;2.95;;
7444;SDS011;3764;48.126;11.594;2023-02-01T15:09:00;3.90;;;2.60;;
7444;SDS011;3764;48.126;11.594;2023-02-01T15:11:30;4.07;;;2.45;;
7444;SDS011;3764;48.126;11.594;2023-02-01T15:13:57;5.60;;;2.70;;
7444;SDS011;3764;48.126;11.594;2023-02-01T15:16:25;4.95;;;2.72;;
7444;SDS011;3764;48.126;11.594;2023-02-01T15:19:09;3.10;;;2.60;;
7444;SDS011;3764;48.126;11.594;2023-02-01T15:21:47;7.07;;;2.80;;
7444;SDS011;3764;48.126;11.594;2023-02-01T15:24:21;3.50;;;3.17;;
7444;SDS011;3764;48.126;11.594;2023-02-01T15:26:49;5.13;;;3.97;;
7444;SDS011;3764;48.126;11.594;2023-02-01T15:29:17;6.82;;;3.95;;
7444;SDS011;3764;48.126;11.594;2023-02-01T15:31:47;3.13;;;2.55;;
7444;SDS011;3764;48.126;11.594;2023-02-01T15:34:16;4.32;;;2.50;;
7444;SDS011;3764;48.126;11.594;2023-02-01T15:36:44;11.70;;;3.15;;
7444;SDS011;3764;48.126;11.594;2023-02-01T15:39:22;3.45;;;2.28;;
7444;SDS011;3764;48.126;11.594;2023-02-01T15:41:52;3.00;;;2.33;;
7444;SDS011;3764;48.126;11.594;2023-02-01T15:44:32;7.88;;;2.55;;
7444;SDS011;3764;48.126;11.594;2023-02-01T15:47:06;3.17;;;2.58;;
7444;SDS011;3764;48.126;11.594;2023-02-01T15:49:39;3.22;;;2.78;;
7444;SDS011;3764;48.126;11.594;2023-02-01T15:52:23;3.40;;;2.65;;